Time;durP1;ratioP1;P1;durP2;ratioP2;P2;SDS_P1;SDS_P2;PMS_P1;PMS_P2;Temp;Humidity;BMP_temperature;BMP_pressure;BME280_temperature;BME280_humidity;BME280_pressure;Samples;Min_cycle;Max_cycle;Signal;HPM_P1;HPM_P2
2023/04/29 00:01:08;;;;;;;35.75;24.30;;;12.20;99.90;;;;;;5014723;28;20058;-75
2023/04/29 00:03:34;;;;;;;32.83;23.27;;;12.20;99.90;;;;;;5014418;28;20053;-75
2023/04/29 00:06:00;;;;;;;38.80;24.27;;;12.20;99.90;;;;;;5014373;28;20088;-75
2023/04/29 00:08:26;;;;;;;37.22;25.10;;;12.20;99.90;;;;;;5014360;28;20034;-75
2023/04/29 00:10:52;;;;;;;40.03;26.95;;;12.20;99.90;;;;;;5014499;28;20029;-75
2023/04/29 00:13:18;;;;;;;35.03;23.60;;;12.20;99.90;;;;;;5014027;28;20085;-75
2023/04/29 00:15:44;;;;;;;36.83;24.83;;;12.10;99.90;;;;;;4980515;28;20040;-75
2023/04/29 00:18:10;;;;;;;43.72;27.10;;;12.20;99.90;;;;;;5014198;28;20026;-75
2023/04/29 00:20:37;;;;;;;39.88;26.73;;;12.20;99.90;;;;;;5014217;28;20052;-75
2023/04/29 00:23:03;;;;;;;37.20;25.92;;;12.20;99.90;;;;;;5014306;28;20045;-75
2023/04/29 00:25:28;;;;;;;38.05;25.40;;;12.20;99.90;;;;;;5013913;28;20403;-76
2023/04/29 00:27:54;;;;;;;38.80;24.38;;;12.20;99.90;;;;;;5014124;28;20040;-75
2023/04/29 00:30:20;;;;;;;36.65;24.90;;;12.10;99.90;;;;;;4995959;28;20033;-75
2023/04/29 00:32:46;;;;;;;39.13;24.58;;;12.10;99.90;;;;;;4996471;28;20030;-75
2023/04/29 00:35:12;;;;;;;37.33;26.00;;;12.10;99.90;;;;;;5014028;28;20042;-75
2023/04/29 00:37:38;;;;;;;36.50;26.30;;;12.10;99.90;;;;;;4996411;28;20041;-75
2023/04/29 00:40:05;;;;;;;35.88;24.17;;;12.10;99.90;;;;;;5013856;28;20072;-75
2023/04/29 00:42:32;;;;;;;39.85;26.25;;;12.10;99.90;;;;;;4996318;28;20386;-75
2023/04/29 00:44:58;;;;;;;42.20;26.27;;;12.10;99.90;;;;;;5014000;28;20026;-75
2023/04/29 00:47:24;;;;;;;38.13;25.27;;;12.00;99.90;;;;;;4996387;28;20437;-75
2023/04/29 00:49:49;;;;;;;38.88;24.48;;;12.00;99.90;;;;;;5013779;28;20041;-75
2023/04/29 00:52:16;;;;;;;36.58;24.98;;;11.90;99.90;;;;;;4980341;28;20045;-75
2023/04/29 00:54:43;;;;;;;31.65;23.00;;;11.90;99.90;;;;;;4996227;28;20029;-75
2023/04/29 00:57:09;;;;;;;35.78;23.50;;;11.90;99.90;;;;;;4963785;28;20479;-75
2023/04/29 00:59:35;;;;;;;35.80;24.55;;;11.90;99.90;;;;;;5014252;28;20040;-75
2023/04/29 01:02:02;;;;;;;33.80;22.73;;;11.90;99.90;;;;;;4996178;28;20036;-75
2023/04/29 01:04:29;;;;;;;32.72;22.23;;;11.90;99.90;;;;;;5013652;28;20363;-75
2023/04/29 01:07:09;;;;;;;35.45;22.52;;;11.90;99.90;;;;;;5013836;28;20030;-75
2023/04/29 01:10:13;;;;;;;31.67;21.60;;;11.90;99.90;;;;;;5013872;28;20053;-75
2023/04/29 01:12:45;;;;;;;34.22;21.20;;;11.90;99.90;;;;;;5013474;28;20022;-74
2023/04/29 01:15:19;;;;;;;32.78;21.83;;;11.90;99.90;;;;;;5013747;28;20034;-75
2023/04/29 01:18:10;;;;;;;36.67;22.42;;;11.90;99.90;;;;;;5013725;28;20033;-75
2023/04/29 01:20:37;;;;;;;32.30;22.27;;;11.90;99.90;;;;;;5013121;28;20494;-75
2023/04/29 01:23:03;;;;;;;33.03;21.15;;;11.90;99.90;;;;;;5013714;28;20026;-76
2023/04/29 01:25:29;;;;;;;32.13;19.65;;;11.80;99.90;;;;;;5003123;28;20045;-77
2023/04/29 01:28:08;;;;;;;30.92;20.35;;;11.90;99.90;;;;;;5019712;28;20030;-76
2023/04/29 01:30:59;;;;;;;32.63;20.95;;;11.90;99.90;;;;;;5013716;28;20033;-76
2023/04/29 01:33:39;;;;;;;30.77;19.85;;;11.90;99.90;;;;;;5013655;28;20387;-76
2023/04/29 01:36:43;;;;;;;28.83;19.98;;;11.90;99.90;;;;;;4996984;28;20467;-77
2023/04/29 01:39:13;;;;;;;30.48;19.75;;;11.90;99.90;;;;;;5013862;28;20513;-76
2023/04/29 01:41:57;;;;;;;36.22;21.45;;;11.90;99.90;;;;;;5017080;28;20033;-76
2023/04/29 01:44:25;;;;;;;28.00;19.83;;;11.90;99.90;;;;;;5000116;28;20536;-76
2023/04/29 01:46:53;;;;;;;31.17;20.50;;;11.90;99.90;;;;;;5017090;28;20022;-76
2023/04/29 01:49:26;;;;;;;31.40;19.90;;;11.90;99.90;;;;;;5017584;28;20030;-76
2023/04/29 01:51:51;;;;;;;;;;;11.90;99.90;;;;;;5017911;28;20034;-75
2023/04/29 01:54:17;;;;;;;31.63;21.08;;;11.90;99.90;;;;;;5017048;28;19910;-75
2023/04/29 01:56:43;;;;;;;32.47;19.50;;;11.90;99.90;;;;;;5016267;28;20038;-75
2023/04/29 01:59:09;;;;;;;28.65;17.88;;;11.90;99.90;;;;;;4999142;28;20056;-75
2023/04/29 02:01:35;;;;;;;31.20;20.83;;;11.90;99.90;;;;;;5016841;28;20458;-75
2023/04/29 02:04:01;;;;;;;30.52;18.67;;;11.90;99.90;;;;;;4999427;28;20075;-74
2023/04/29 02:06:27;;;;;;;29.40;18.75;;;11.90;99.90;;;;;;5016912;28;20080;-74
2023/04/29 02:08:53;;;;;;;29.67;18.60;;;12.00;99.90;;;;;;5016879;28;20114;-74
2023/04/29 02:11:18;;;;;;;26.05;18.55;;;12.00;99.90;;;;;;4998652;28;20463;-74
2023/04/29 02:13:44;;;;;;;30.48;19.60;;;12.10;99.90;;;;;;4999223;28;20034;-75
2023/04/29 02:16:11;;;;;;;31.98;20.00;;;12.10;99.90;;;;;;5016642;28;20034;-74
2023/04/29 02:18:37;;;;;;;28.63;18.92;;;12.10;99.90;;;;;;5016371;28;20120;-75
2023/04/29 02:21:03;;;;;;;31.38;18.92;;;12.10;99.90;;;;;;5016730;28;20128;-75
2023/04/29 02:23:29;;;;;;;27.90;18.63;;;12.10;99.90;;;;;;5016556;28;20101;-75
2023/04/29 02:25:55;;;;;;;28.77;18.73;;;12.20;99.90;;;;;;4998703;28;20500;-75
2023/04/29 02:28:22;;;;;;;28.85;19.52;;;12.20;99.90;;;;;;4999024;28;20030;-74
2023/04/29 02:30:48;;;;;;;27.80;17.73;;;12.20;99.90;;;;;;5015917;28;20029;-74
2023/04/29 02:33:15;;;;;;;28.17;17.63;;;12.20;99.90;;;;;;4998988;28;20449;-75
2023/04/29 02:35:40;;;;;;;27.17;16.70;;;12.20;99.90;;;;;;5016242;28;20038;-75
2023/04/29 02:38:06;;;;;;;26.73;18.15;;;12.20;99.90;;;;;;5016266;28;20037;-75
2023/04/29 02:40:32;;;;;;;28.45;17.88;;;12.20;99.90;;;;;;4998366;28;20040;-74
2023/04/29 02:42:57;;;;;;;28.30;18.63;;;12.20;99.90;;;;;;4998485;28;20041;-75
2023/04/29 02:45:23;;;;;;;31.67;19.58;;;12.20;99.90;;;;;;4998617;28;20030;-75
2023/04/29 02:47:49;;;;;;;32.88;19.13;;;12.20;99.90;;;;;;5015774;28;20493;-75
2023/04/29 02:50:14;;;;;;;26.23;17.83;;;12.00;99.90;;;;;;4998434;28;20042;-75
2023/04/29 02:52:43;;;;;;;25.30;17.45;;;12.00;99.90;;;;;;4997083;28;20037;-75
2023/04/29 02:55:09;;;;;;;28.00;18.23;;;12.10;99.90;;;;;;5015679;28;20034;-75
2023/04/29 02:57:34;;;;;;;25.30;16.55;;;12.10;99.90;;;;;;4997599;28;20547;-75
2023/04/29 03:00:00;;;;;;;24.75;16.50;;;12.10;99.90;;;;;;5015577;28;20041;-75
2023/04/29 03:02:26;;;;;;;22.42;14.90;;;12.20;99.90;;;;;;5015855;28;20076;-74
2023/04/29 03:04:52;;;;;;;25.77;17.08;;;12.20;99.90;;;;;;5015806;28;20133;-74
2023/04/29 03:07:18;;;;;;;24.25;16.48;;;12.30;99.90;;;;;;5015216;28;20037;-74
2023/04/29 03:09:44;;;;;;;24.55;15.90;;;12.30;99.90;;;;;;4998332;28;20498;-75
2023/04/29 03:12:10;;;;;;;25.60;16.60;;;12.30;99.90;;;;;;4981789;28;20113;-75
2023/04/29 03:14:36;;;;;;;27.02;17.15;;;12.30;99.90;;;;;;5015380;28;20067;-75
2023/04/29 03:17:01;;;;;;;26.35;16.90;;;12.30;99.90;;;;;;5015311;28;20038;-75
2023/04/29 03:19:27;;;;;;;30.30;16.67;;;12.30;99.90;;;;;;5015104;28;20560;-75
2023/04/29 03:21:52;;;;;;;26.90;17.35;;;12.30;99.90;;;;;;5015208;28;20034;-75
2023/04/29 03:24:18;;;;;;;27.65;16.33;;;12.30;99.90;;;;;;4997539;28;20076;-75
2023/04/29 03:26:44;;;;;;;28.30;18.35;;;12.20;99.90;;;;;;4997339;28;20038;-74
2023/04/29 03:29:09;;;;;;;20.35;13.93;;;12.20;99.90;;;;;;4981600;28;20034;-74
2023/04/29 03:31:35;;;;;;;24.73;16.05;;;12.10;99.90;;;;;;4997928;28;20386;-74
2023/04/29 03:34:01;;;;;;;25.90;15.77;;;12.10;99.90;;;;;;4997295;28;20026;-74
2023/04/29 03:36:26;;;;;;;24.77;17.02;;;12.20;99.90;;;;;;4997197;28;20045;-75
2023/04/29 03:38:52;;;;;;;23.15;16.67;;;12.20;99.90;;;;;;4997650;28;20038;-75
2023/04/29 03:41:18;;;;;;;24.10;17.00;;;12.20;99.90;;;;;;5014906;28;20475;-75
2023/04/29 03:43:44;;;;;;;24.48;16.10;;;12.20;99.90;;;;;;4997416;28;20083;-75
2023/04/29 03:46:10;;;;;;;25.35;16.85;;;12.20;99.90;;;;;;4997434;28;20038;-75
2023/04/29 03:48:36;;;;;;;25.40;15.50;;;12.30;99.90;;;;;;4997228;28;20494;-75
2023/04/29 03:51:03;;;;;;;29.15;18.50;;;12.30;99.90;;;;;;4997449;28;20494;-77
2023/04/29 03:53:28;;;;;;;25.15;17.05;;;12.30;99.90;;;;;;4997286;28;20390;-76
2023/04/29 03:55:54;;;;;;;29.55;18.17;;;12.20;99.90;;;;;;4996840;28;20054;-76
2023/04/29 03:58:20;;;;;;;26.42;16.63;;;12.20;99.90;;;;;;5014561;28;20529;-76
2023/04/29 04:00:46;;;;;;;18.90;13.23;;;12.30;99.90;;;;;;4981219;28;20116;-76
2023/04/29 04:03:12;;;;;;;27.13;17.60;;;12.30;99.90;;;;;;5014481;28;20113;-77
2023/04/29 04:05:37;;;;;;;28.52;18.23;;;12.30;99.90;;;;;;5015190;28;20034;-76
2023/04/29 04:08:03;;;;;;;27.52;16.58;;;12.20;99.90;;;;;;4997248;28;20157;-77
2023/04/29 04:10:29;;;;;;;26.38;17.48;;;12.10;99.90;;;;;;4997007;28;20026;-76
2023/04/29 04:12:55;;;;;;;26.27;16.50;;;12.20;99.90;;;;;;4997198;28;20529;-77
2023/04/29 04:15:21;;;;;;;22.73;15.68;;;12.10;99.90;;;;;;4996931;28;20034;-77
2023/04/29 04:17:47;;;;;;;24.60;16.80;;;12.10;99.90;;;;;;5014718;28;20099;-77
2023/04/29 04:20:12;;;;;;;26.88;17.17;;;12.10;99.90;;;;;;4996504;28;20049;-77
2023/04/29 04:22:38;;;;;;;22.17;16.02;;;12.00;99.90;;;;;;4996941;28;20474;-77
2023/04/29 04:25:04;;;;;;;24.25;16.60;;;12.10;99.90;;;;;;4980890;28;20030;-76
2023/04/29 04:27:30;;;;;;;29.08;17.80;;;12.10;99.90;;;;;;4996676;28;20029;-76
2023/04/29 04:29:56;;;;;;;30.77;18.08;;;12.00;99.90;;;;;;5014024;28;20470;-77
2023/04/29 04:32:22;;;;;;;26.38;18.40;;;11.90;99.90;;;;;;4980536;28;20385;-77
2023/04/29 04:34:48;;;;;;;29.10;17.42;;;11.80;99.90;;;;;;5014221;28;20026;-77
2023/04/29 04:37:14;;;;;;;23.27;16.10;;;11.70;99.90;;;;;;4996465;28;20104;-77
2023/04/29 04:39:39;;;;;;;25.33;17.35;;;11.70;99.90;;;;;;4980462;28;20030;-76
2023/04/29 04:42:05;;;;;;;24.65;16.50;;;11.80;99.90;;;;;;4980275;28;20026;-76
2023/04/29 04:44:32;;;;;;;26.17;17.50;;;11.60;99.90;;;;;;4980513;28;20058;-77
2023/04/29 04:47:00;;;;;;;20.00;15.45;;;11.60;99.90;;;;;;4996527;28;20034;-77
2023/04/29 04:49:26;;;;;;;22.00;16.27;;;11.50;99.90;;;;;;5014104;28;20061;-78
2023/04/29 04:51:52;;;;;;;26.73;17.38;;;11.70;99.90;;;;;;5014285;28;20034;-77
2023/04/29 04:54:18;;;;;;;24.13;15.50;;;11.70;99.90;;;;;;5014221;28;20033;-76
2023/04/29 04:56:44;;;;;;;22.10;15.15;;;11.80;99.90;;;;;;5013135;28;20056;-77
2023/04/29 04:59:09;;;;;;;22.13;15.68;;;11.80;99.90;;;;;;4996407;28;20030;-76
2023/04/29 05:01:35;;;;;;;20.30;14.00;;;11.90;99.90;;;;;;4996254;28;20034;-76
2023/04/29 05:04:02;;;;;;;19.63;14.98;;;11.90;99.90;;;;;;5013956;28;20034;-77
2023/04/29 05:06:28;;;;;;;19.95;14.63;;;11.90;99.90;;;;;;4996205;28;20041;-77
2023/04/29 05:08:53;;;;;;;20.55;14.43;;;12.00;99.90;;;;;;4995707;28;20030;-76
2023/04/29 05:11:20;;;;;;;21.13;15.07;;;12.00;99.90;;;;;;5013475;28;20022;-76
2023/04/29 05:13:47;;;;;;;20.27;14.30;;;12.00;99.90;;;;;;5013474;28;20034;-76
2023/04/29 05:16:13;;;;;;;23.38;14.73;;;12.10;99.90;;;;;;5016190;28;20483;-77
2023/04/29 05:18:39;;;;;;;18.92;14.10;;;12.10;99.90;;;;;;5017641;28;20040;-77
2023/04/29 05:21:04;;;;;;;18.65;13.90;;;12.10;99.90;;;;;;5017709;28;20096;-77
2023/04/29 05:23:30;;;;;;;21.25;14.20;;;12.20;99.90;;;;;;5018645;28;20502;-75
2023/04/29 05:25:56;;;;;;;20.30;14.25;;;12.20;99.90;;;;;;5021753;28;20042;-76
2023/04/29 05:28:22;;;;;;;18.70;13.02;;;12.20;99.90;;;;;;5003497;28;20036;-76
2023/04/29 05:30:50;;;;;;;19.40;14.73;;;12.20;99.90;;;;;;5017449;28;20041;-76
2023/04/29 05:33:16;;;;;;;21.08;14.57;;;12.20;99.90;;;;;;5017565;28;20033;-76
2023/04/29 05:35:42;;;;;;;19.25;14.32;;;12.20;99.90;;;;;;4999677;28;20038;-76
2023/04/29 05:38:07;;;;;;;19.38;13.60;;;12.20;99.90;;;;;;5017375;28;20073;-76
2023/04/29 05:40:33;;;;;;;19.58;13.57;;;12.30;99.90;;;;;;5017227;28;20554;-76
2023/04/29 05:42:59;;;;;;;20.27;13.25;;;12.40;99.90;;;;;;4999553;28;20466;-76
2023/04/29 05:45:25;;;;;;;16.02;13.48;;;12.30;99.90;;;;;;5000045;28;20034;-77
2023/04/29 05:47:51;;;;;;;23.45;13.93;;;12.30;99.90;;;;;;4983532;28;20029;-76
2023/04/29 05:50:17;;;;;;;22.63;14.52;;;12.30;99.90;;;;;;5003617;28;20032;-76
2023/04/29 05:52:42;;;;;;;20.83;12.90;;;12.30;99.90;;;;;;5012221;28;20113;-76
2023/04/29 05:55:08;;;;;;;18.25;13.15;;;12.40;99.90;;;;;;5014299;28;20046;-76
2023/04/29 05:57:34;;;;;;;18.63;9.93;;;12.50;99.90;;;;;;5013719;28;20036;-77
2023/04/29 06:00:00;;;;;;;23.10;13.25;;;12.60;99.90;;;;;;4997310;28;20058;-77
2023/04/29 06:02:26;;;;;;;21.42;13.57;;;12.70;99.90;;;;;;5014718;28;20037;-77
2023/04/29 06:04:52;;;;;;;15.68;11.15;;;12.60;99.90;;;;;;5014161;28;20022;-78
2023/04/29 06:07:18;;;;;;;19.63;13.30;;;12.60;99.90;;;;;;5028136;28;20049;-77
2023/04/29 06:09:43;;;;;;;22.02;14.73;;;12.60;99.90;;;;;;5027717;28;20622;-78
2023/04/29 06:12:10;;;;;;;21.40;14.23;;;12.60;99.90;;;;;;5013705;28;20081;-77
2023/04/29 06:14:35;;;;;;;19.65;12.55;;;12.60;99.90;;;;;;4984538;28;20449;-78
2023/04/29 06:17:01;;;;;;;21.23;13.45;;;12.50;99.90;;;;;;4985292;28;20062;-76
2023/04/29 06:19:27;;;;;;;17.27;10.90;;;12.50;99.90;;;;;;5023595;28;20076;-75
2023/04/29 06:21:52;;;;;;;23.45;14.85;;;12.50;99.90;;;;;;5019524;28;20169;-75
2023/04/29 06:24:18;;;;;;;16.73;12.18;;;12.50;99.90;;;;;;5003396;28;20030;-77
2023/04/29 06:26:44;;;;;;;19.50;12.80;;;12.50;99.90;;;;;;4993392;28;20042;-76
2023/04/29 06:29:09;;;;;;;21.65;14.15;;;12.60;99.90;;;;;;5022942;28;20026;-76
2023/04/29 06:31:35;;;;;;;18.50;13.10;;;12.70;99.90;;;;;;5019236;28;20060;-76
2023/04/29 06:34:01;;;;;;;16.02;11.60;;;12.70;99.90;;;;;;4967158;28;20034;-74
2023/04/29 06:36:27;;;;;;;22.58;12.90;;;12.80;99.90;;;;;;5016197;28;20133;-75
2023/04/29 06:38:52;;;;;;;20.05;13.05;;;12.70;99.90;;;;;;5015934;28;20459;-75
2023/04/29 06:41:18;;;;;;;23.08;12.95;;;12.80;99.90;;;;;;5016449;28;20072;-74
2023/04/29 06:43:44;;;;;;;22.70;14.05;;;12.80;99.90;;;;;;5015476;28;20080;-75
2023/04/29 06:46:10;;;;;;;17.00;11.32;;;12.80;99.90;;;;;;5015611;28;20029;-76
2023/04/29 06:48:36;;;;;;;14.50;10.32;;;12.80;99.90;;;;;;4997813;28;20034;-75
2023/04/29 06:51:01;;;;;;;20.42;12.85;;;12.80;99.90;;;;;;4998785;28;20430;-75
2023/04/29 06:53:27;;;;;;;14.93;10.43;;;12.90;99.90;;;;;;5004407;28;20026;-77
2023/04/29 06:55:53;;;;;;;18.17;10.32;;;12.90;99.90;;;;;;4982395;28;20069;-77
2023/04/29 06:58:19;;;;;;;16.67;11.60;;;12.90;99.90;;;;;;4999412;28;20030;-78
2023/04/29 07:00:46;;;;;;;15.70;10.13;;;13.00;99.90;;;;;;4997568;28;20037;-78
2023/04/29 07:03:12;;;;;;;17.83;10.40;;;13.00;99.90;;;;;;5014393;28;20115;-78
2023/04/29 07:05:39;;;;;;;20.42;12.40;;;13.00;99.90;;;;;;4999770;28;20054;-78
2023/04/29 07:08:05;;;;;;;19.45;13.32;;;13.00;99.90;;;;;;4997736;28;20026;-74
2023/04/29 07:10:31;;;;;;;18.58;12.50;;;12.90;99.90;;;;;;5013988;28;20084;-73
2023/04/29 07:12:59;;;;;;;19.75;13.70;;;12.90;99.90;;;;;;5014857;28;20030;-75
2023/04/29 07:15:25;;;;;;;20.33;12.90;;;12.80;99.90;;;;;;5015811;28;20060;-75
2023/04/29 07:17:51;;;;;;;18.27;11.73;;;12.70;99.90;;;;;;5020916;28;20126;-76
2023/04/29 07:20:16;;;;;;;18.45;11.60;;;12.80;99.90;;;;;;5003068;28;20478;-76
2023/04/29 07:22:42;;;;;;;13.20;9.10;;;12.80;99.90;;;;;;5018039;28;20489;-75
2023/04/29 07:25:09;;;;;;;17.30;11.57;;;12.90;99.90;;;;;;4998483;28;20517;-75
2023/04/29 07:27:35;;;;;;;17.80;11.95;;;13.00;99.90;;;;;;4997408;28;20030;-75
2023/04/29 07:30:02;;;;;;;21.05;13.20;;;12.90;99.90;;;;;;5015505;28;20030;-75
2023/04/29 07:32:28;;;;;;;15.85;9.38;;;13.00;99.90;;;;;;5018382;28;20037;-76
2023/04/29 07:34:53;;;;;;;17.48;10.30;;;13.00;99.90;;;;;;5017430;28;20034;-78
2023/04/29 07:37:19;;;;;;;16.65;11.63;;;13.10;99.90;;;;;;5000836;28;20466;-77
2023/04/29 07:39:45;;;;;;;19.95;11.82;;;13.20;99.90;;;;;;5009021;28;20041;-78
2023/04/29 07:42:10;;;;;;;19.67;10.55;;;13.20;99.90;;;;;;5007485;28;20033;-77
2023/04/29 07:44:36;;;;;;;14.48;9.50;;;13.30;99.90;;;;;;5023488;28;20030;-78
2023/04/29 07:47:02;;;;;;;18.67;11.13;;;13.40;99.90;;;;;;5023909;28;20536;-78
2023/04/29 07:49:27;;;;;;;18.42;11.00;;;13.50;99.90;;;;;;5012413;28;20079;-78
2023/04/29 07:51:53;;;;;;;16.73;10.05;;;13.50;99.90;;;;;;4977149;28;20034;-79
2023/04/29 07:54:19;;;;;;;15.95;11.10;;;13.50;99.90;;;;;;4994593;28;20030;-81
2023/04/29 07:56:48;;;;;;;13.90;8.90;;;13.50;99.90;;;;;;4995064;28;20775;-79
2023/04/29 07:59:14;;;;;;;16.58;11.32;;;13.40;99.90;;;;;;5011003;28;20029;-79
2023/04/29 08:01:42;;;;;;;13.40;8.65;;;13.50;99.90;;;;;;5013102;28;20439;-79
2023/04/29 08:04:08;;;;;;;12.80;8.70;;;13.60;99.90;;;;;;4980210;28;20092;-78
2023/04/29 08:06:34;;;;;;;16.27;10.65;;;13.60;99.90;;;;;;4997152;28;20402;-78
2023/04/29 08:09:00;;;;;;;17.13;11.05;;;13.70;99.90;;;;;;5014683;28;20034;-78
2023/04/29 08:11:26;;;;;;;15.63;9.65;;;13.60;99.90;;;;;;5014837;28;20030;-79
2023/04/29 08:13:52;;;;;;;12.52;8.50;;;13.60;99.90;;;;;;4999901;28;20359;-78
2023/04/29 08:16:18;;;;;;;20.15;11.38;;;13.70;99.90;;;;;;5006775;28;20048;-79
2023/04/29 08:18:44;;;;;;;13.65;9.30;;;13.60;99.90;;;;;;5024950;28;20057;-79
2023/04/29 08:21:12;;;;;;;13.45;7.97;;;13.70;99.90;;;;;;5030771;28;20074;-78
2023/04/29 08:23:39;;;;;;;14.82;9.98;;;13.70;99.90;;;;;;4975306;28;20034;-79
2023/04/29 08:26:04;;;;;;;11.32;8.18;;;13.80;99.90;;;;;;4997763;28;20103;-80
2023/04/29 08:28:30;;;;;;;13.32;8.80;;;13.90;99.90;;;;;;4997351;28;20034;-79
2023/04/29 08:30:56;;;;;;;13.38;9.38;;;14.00;99.90;;;;;;5014412;28;20466;-79
2023/04/29 08:33:22;;;;;;;13.10;9.68;;;14.00;99.90;;;;;;5014535;28;20026;-79
2023/04/29 08:36:08;;;;;;;17.77;9.57;;;13.90;99.90;;;;;;5014482;28;20038;-79
2023/04/29 08:38:34;;;;;;;17.10;9.35;;;13.90;99.90;;;;;;4997006;28;20065;-79
2023/04/29 08:41:00;;;;;;;13.98;8.07;;;13.80;99.90;;;;;;5013918;28;20493;-79
2023/04/29 08:43:26;;;;;;;14.50;9.25;;;13.90;99.90;;;;;;5014512;28;20081;-79
2023/04/29 08:45:52;;;;;;;16.60;9.30;;;14.10;99.90;;;;;;5014121;28;20116;-79
2023/04/29 08:48:18;;;;;;;12.18;8.43;;;14.00;99.90;;;;;;5013859;28;20537;-79
2023/04/29 08:50:44;;;;;;;16.73;9.25;;;14.00;99.90;;;;;;4995838;28;20073;-79
2023/04/29 08:53:12;;;;;;;14.98;8.80;;;13.90;99.90;;;;;;4997240;28;20033;-79
2023/04/29 08:55:43;;;;;;;13.68;8.75;;;14.00;99.90;;;;;;5014052;28;20033;-79
2023/04/29 08:58:09;;;;;;;12.90;7.68;;;14.10;99.90;;;;;;5015219;28;20022;-79
2023/04/29 09:00:36;;;;;;;12.95;7.93;;;14.20;99.90;;;;;;4996005;28;20117;-79
2023/04/29 09:03:12;;;;;;;15.23;7.93;;;14.30;99.80;;;;;;5012659;28;20065;-80
2023/04/29 09:05:40;;;;;;;12.93;7.82;;;14.40;98.40;;;;;;4995980;28;20036;-80
2023/04/29 09:08:07;;;;;;;12.50;7.13;;;14.30;98.90;;;;;;5013906;28;20029;-80
2023/04/29 09:10:35;;;;;;;8.77;5.75;;;14.30;98.90;;;;;;4980183;28;20053;-79
2023/04/29 09:13:00;;;;;;;12.63;5.85;;;14.40;99.70;;;;;;4994282;28;20030;-79
2023/04/29 09:15:26;;;;;;;11.73;7.25;;;14.70;99.90;;;;;;4978170;28;20084;-80
2023/04/29 09:17:52;;;;;;;11.57;6.28;;;14.90;99.00;;;;;;4995193;28;20061;-80
2023/04/29 09:20:25;;;;;;;11.05;6.35;;;15.10;99.30;;;;;;5012064;28;20471;-79
2023/04/29 09:23:03;;;;;;;11.80;6.80;;;15.20;99.10;;;;;;5010716;28;20022;-78
2023/04/29 09:25:30;;;;;;;13.07;6.47;;;15.30;98.30;;;;;;4973265;28;20034;-79
2023/04/29 09:27:56;;;;;;;7.57;4.90;;;15.60;98.50;;;;;;4975935;28;20030;-79
2023/04/29 09:30:22;;;;;;;7.05;4.93;;;15.90;98.50;;;;;;4976612;28;20125;-80
2023/04/29 09:33:07;;;;;;;9.93;5.40;;;16.10;97.50;;;;;;4993710;28;20029;-79
2023/04/29 09:35:33;;;;;;;8.45;4.82;;;16.30;96.90;;;;;;4993871;28;20082;-79
2023/04/29 09:38:13;;;;;;;8.90;5.25;;;16.20;95.30;;;;;;4979754;28;20122;-77
2023/04/29 09:40:41;;;;;;;7.95;5.53;;;15.90;94.60;;;;;;4999782;28;20542;-80
2023/04/29 09:43:15;;;;;;;14.30;5.82;;;15.70;95.50;;;;;;4992074;28;20045;-81
2023/04/29 09:45:43;;;;;;;11.32;5.70;;;15.90;95.80;;;;;;5012860;28;20029;-79
2023/04/29 09:48:10;;;;;;;8.65;4.50;;;16.10;96.40;;;;;;4995527;28;20121;-79
2023/04/29 09:50:38;;;;;;;5.80;4.13;;;16.20;95.70;;;;;;4995740;28;20033;-80
2023/04/29 09:53:06;;;;;;;8.60;4.68;;;16.20;95.50;;;;;;4964550;28;20482;-79
2023/04/29 09:55:32;;;;;;;7.75;4.28;;;16.10;94.60;;;;;;4979844;28;20034;-81
2023/04/29 09:57:59;;;;;;;6.20;4.18;;;16.10;94.40;;;;;;4995295;28;20033;-79
2023/04/29 10:00:33;;;;;;;7.22;4.35;;;16.20;95.20;;;;;;4962410;28;20386;-80
2023/04/29 10:03:00;;;;;;;6.63;3.80;;;16.30;95.90;;;;;;5015879;28;20038;-80
2023/04/29 10:05:29;;;;;;;7.43;4.28;;;16.30;95.70;;;;;;4997939;28;20037;-80
2023/04/29 10:07:58;;;;;;;7.90;4.30;;;16.20;93.60;;;;;;4998001;28;20030;-80
2023/04/29 10:10:26;;;;;;;6.75;4.20;;;16.00;93.40;;;;;;5015414;28;20367;-80
2023/04/29 10:12:53;;;;;;;8.13;4.13;;;15.80;93.40;;;;;;4997965;28;20441;-79
2023/04/29 10:15:57;;;;;;;7.63;5.28;;;15.80;93.90;;;;;;4957785;28;20030;-81
2023/04/29 10:18:35;;;;;;;5.55;3.80;;;15.60;93.30;;;;;;4976100;28;20033;-79
2023/04/29 10:21:02;;;;;;;5.68;3.47;;;15.50;93.80;;;;;;4997683;28;20145;-79
2023/04/29 10:23:29;;;;;;;5.63;3.75;;;15.50;94.00;;;;;;4983576;28;20044;-77
2023/04/29 10:25:58;;;;;;;6.93;3.85;;;15.60;94.00;;;;;;4983113;28;20041;-80
2023/04/29 10:28:25;;;;;;;4.40;3.05;;;15.50;93.50;;;;;;4998679;28;20084;-79
2023/04/29 10:30:52;;;;;;;8.10;3.25;;;15.40;93.90;;;;;;4982853;28;20030;-79
2023/04/29 10:33:18;;;;;;;4.85;3.00;;;15.50;94.10;;;;;;5016598;28;20463;-80
2023/04/29 10:35:47;;;;;;;7.72;3.70;;;15.60;94.30;;;;;;4982493;28;20204;-80
2023/04/29 10:38:33;;;;;;;7.57;3.70;;;15.50;94.20;;;;;;5016445;28;20030;-79
2023/04/29 10:41:07;;;;;;;5.57;3.22;;;15.50;93.90;;;;;;5016377;28;20022;-80
2023/04/29 10:43:33;;;;;;;7.15;3.53;;;15.50;94.40;;;;;;4998620;28;20111;-80
2023/04/29 10:46:26;;;;;;;5.90;3.00;;;15.50;93.90;;;;;;4982416;28;20470;-79
2023/04/29 10:49:02;;;;;;;11.00;3.75;;;15.50;93.90;;;;;;4979935;28;20033;-79
2023/04/29 10:51:31;;;;;;;4.97;3.38;;;15.50;93.60;;;;;;4998354;28;20068;-80
2023/04/29 10:54:13;;;;;;;4.45;2.47;;;15.40;93.20;;;;;;4997953;28;20030;-79
2023/04/29 10:56:43;;;;;;;8.60;3.10;;;15.40;93.90;;;;;;4997884;28;20049;-80
2023/04/29 10:59:11;;;;;;;4.45;2.63;;;15.50;94.00;;;;;;4998094;28;20030;-80
2023/04/29 11:01:44;;;;;;;4.75;2.85;;;15.60;94.20;;;;;;5016033;28;20037;-79
2023/04/29 11:04:11;;;;;;;4.20;2.40;;;15.70;93.90;;;;;;4999109;28;20029;-79
2023/04/29 11:06:38;;;;;;;5.82;2.80;;;15.70;94.10;;;;;;5017042;28;20080;-80
2023/04/29 11:09:08;;;;;;;7.00;3.17;;;15.80;93.90;;;;;;5017996;28;20355;-75
2023/04/29 11:11:48;;;;;;;5.30;2.50;;;16.00;93.30;;;;;;5003083;28;20034;-77
2023/04/29 11:14:15;;;;;;;4.38;2.42;;;16.20;93.10;;;;;;5021319;28;20038;-77
2023/04/29 11:17:08;;;;;;;4.85;2.70;;;16.30;92.50;;;;;;5018417;28;20038;-79
2023/04/29 11:19:45;;;;;;;5.25;2.28;;;16.30;92.20;;;;;;4994598;28;20045;-79
2023/04/29 11:22:12;;;;;;;5.30;2.50;;;16.30;92.40;;;;;;4999583;28;20049;-78
2023/04/29 11:24:49;;;;;;;4.97;3.17;;;16.40;92.40;;;;;;5016813;28;20018;-79
2023/04/29 11:27:16;;;;;;;5.75;3.33;;;16.30;90.70;;;;;;5017901;28;20026;-78
2023/04/29 11:29:44;;;;;;;6.20;3.40;;;16.20;91.00;;;;;;5014564;28;20037;-78
2023/04/29 11:32:09;;;;;;;4.78;3.03;;;16.20;91.30;;;;;;5020158;28;20034;-76
2023/04/29 11:34:35;;;;;;;9.52;3.42;;;16.10;91.50;;;;;;5021700;28;20065;-77
2023/04/29 11:37:00;;;;;;;8.20;3.30;;;16.20;91.30;;;;;;5021760;28;20081;-78
2023/04/29 11:39:27;;;;;;;5.68;3.25;;;16.10;91.20;;;;;;5018349;28;20026;-77
2023/04/29 11:42:05;;;;;;;4.47;3.00;;;16.10;91.40;;;;;;5002402;28;20038;-76
2023/04/29 11:44:33;;;;;;;6.13;3.10;;;16.10;91.20;;;;;;5019546;28;20028;-76
2023/04/29 11:47:06;;;;;;;3.45;2.15;;;16.10;90.30;;;;;;5017802;28;20038;-76
2023/04/29 11:49:33;;;;;;;5.38;2.20;;;16.00;90.50;;;;;;5002390;28;20034;-76
2023/04/29 11:51:59;;;;;;;2.47;1.13;;;16.00;90.70;;;;;;5005283;28;20034;-77
2023/04/29 11:54:26;;;;;;;3.75;2.45;;;16.10;91.00;;;;;;5023502;28;20028;-76
2023/04/29 11:56:56;;;;;;;4.00;2.60;;;16.20;90.70;;;;;;5024096;28;20040;-77
2023/04/29 11:59:22;;;;;;;5.82;2.28;;;16.20;89.40;;;;;;5018993;28;20018;-77
2023/04/29 12:01:51;;;;;;;3.72;1.70;;;16.00;88.60;;;;;;4999311;28;20165;-77
2023/04/29 12:04:18;;;;;;;4.88;2.15;;;16.00;90.00;;;;;;5015980;28;20021;-77
2023/04/29 12:06:44;;;;;;;2.60;1.60;;;16.10;90.50;;;;;;5017716;28;20041;-81
2023/04/29 12:09:10;;;;;;;4.25;2.30;;;16.20;90.70;;;;;;5014494;28;20033;-79
2023/04/29 12:11:36;;;;;;;4.85;2.10;;;16.30;88.80;;;;;;5014594;28;20044;-79
2023/04/29 12:14:05;;;;;;;4.43;1.80;;;16.20;88.50;;;;;;5014512;28;20144;-80
2023/04/29 12:16:32;;;;;;;7.07;2.20;;;16.30;89.50;;;;;;5014371;28;20121;-79
2023/04/29 12:18:58;;;;;;;5.55;2.38;;;16.30;88.90;;;;;;4996870;28;20038;-82
2023/04/29 12:21:25;;;;;;;3.95;1.92;;;16.40;89.70;;;;;;4996441;28;20065;-77
2023/04/29 12:23:52;;;;;;;4.15;2.63;;;16.50;89.90;;;;;;4980341;28;20029;-78
2023/04/29 12:26:19;;;;;;;7.70;2.50;;;16.60;89.50;;;;;;5013727;28;20038;-77
2023/04/29 12:28:45;;;;;;;4.97;1.95;;;16.70;87.20;;;;;;5014073;28;20168;-77
2023/04/29 12:31:14;;;;;;;3.15;1.90;;;16.80;87.80;;;;;;4980378;28;20116;-80
2023/04/29 12:33:45;;;;;;;4.28;2.35;;;16.80;87.70;;;;;;4996632;28;20471;-82
2023/04/29 12:36:18;;;;;;;4.38;2.30;;;16.80;87.70;;;;;;5013734;28;20182;-79